sensor_id;sensor_type;location;lat;lon;timestamp;P1;durP1;ratioP1;P2;durP2;ratioP2
77948;SDS011;67146;51.236;-0.336;2023-11-18T00:01:40;5.65;;;0.68;;
77948;SDS011;67146;51.236;-0.336;2023-11-18T00:04:30;12.52;;;1.15;;
77948;SDS011;67146;51.236;-0.336;2023-11-18T00:07:31;5.95;;;0.90;;
77948;SDS011;67146;51.236;-0.336;2023-11-18T00:10:11;8.63;;;0.93;;
77948;SDS011;67146;51.236;-0.336;2023-11-18T00:12:58;6.82;;;1.35;;
77948;SDS011;67146;51.236;-0.336;2023-11-18T00:15:55;8.18;;;1.13;;
77948;SDS011;67146;51.236;-0.336;2023-11-18T00:19:06;8.00;;;1.25;;
77948;SDS011;67146;51.236;-0.336;2023-11-18T00:25:18;11.50;;;1.13;;
77948;SDS011;67146;51.236;-0.336;2023-11-18T00:28:08;5.70;;;0.80;;
77948;SDS011;67146;51.236;-0.336;2023-11-18T00:52:14;6.25;;;0.65;;
77948;SDS011;67146;51.236;-0.336;2023-11-18T10:31:31;1.95;;;0.10;;
77948;SDS011;67146;51.236;-0.336;2023-11-18T10:34:10;1.35;;;0.10;;
77948;SDS011;67146;51.236;-0.336;2023-11-18T10:37:04;1.92;;;0.20;;
77948;SDS011;67146;51.236;-0.336;2023-11-18T10:39:34;2.50;;;0.30;;
77948;SDS011;67146;51.236;-0.336;2023-11-18T10:45:42;1.60;;;0.10;;
77948;SDS011;67146;51.236;-0.336;2023-11-18T10:48:21;1.10;;;0.30;;
77948;SDS011;67146;51.236;-0.336;2023-11-18T10:50:58;2.75;;;0.10;;
77948;SDS011;67146;51.236;-0.336;2023-11-18T10:53:29;2.08;;;0.32;;
77948;SDS011;67146;51.236;-0.336;2023-11-18T10:56:00;1.63;;;0.10;;
77948;SDS011;67146;51.236;-0.336;2023-11-18T10:58:41;1.98;;;0.20;;
77948;SDS011;67146;51.236;-0.336;2023-11-18T11:04:14;2.05;;;0.10;;
77948;SDS011;67146;51.236;-0.336;2023-11-18T11:33:33;1.15;;;0.10;;
77948;SDS011;67146;51.236;-0.336;2023-11-18T11:36:49;1.30;;;0.10;;
77948;SDS011;67146;51.236;-0.336;2023-11-18T12:02:53;2.78;;;0.20;;
77948;SDS011;67146;51.236;-0.336;2023-11-18T12:05:27;1.00;;;0.20;;
77948;SDS011;67146;51.236;-0.336;2023-11-18T12:07:59;2.67;;;0.20;;
77948;SDS011;67146;51.236;-0.336;2023-11-18T12:10:34;2.33;;;0.20;;
77948;SDS011;67146;51.236;-0.336;2023-11-18T12:19:09;2.05;;;0.20;;
77948;SDS011;67146;51.236;-0.336;2023-11-18T12:21:54;2.80;;;0.35;;
77948;SDS011;67146;51.236;-0.336;2023-11-18T12:24:20;4.75;;;0.43;;
77948;SDS011;67146;51.236;-0.336;2023-11-18T12:26:49;1.92;;;0.28;;
77948;SDS011;67146;51.236;-0.336;2023-11-18T12:29:33;4.65;;;0.80;;
77948;SDS011;67146;51.236;-0.336;2023-11-18T12:32:03;3.28;;;0.60;;
77948;SDS011;67146;51.236;-0.336;2023-11-18T12:43:01;3.17;;;0.50;;
77948;SDS011;67146;51.236;-0.336;2023-11-18T12:48:18;3.00;;;0.60;;
77948;SDS011;67146;51.236;-0.336;2023-11-18T12:50:52;4.15;;;0.75;;
77948;SDS011;67146;51.236;-0.336;2023-11-18T12:53:20;3.10;;;0.55;;
77948;SDS011;67146;51.236;-0.336;2023-11-18T12:55:46;5.05;;;0.40;;
77948;SDS011;67146;51.236;-0.336;2023-11-18T12:58:13;4.30;;;0.43;;
77948;SDS011;67146;51.236;-0.336;2023-11-18T13:00:40;5.63;;;0.52;;
77948;SDS011;67146;51.236;-0.336;2023-11-18T13:03:08;6.45;;;0.80;;
77948;SDS011;67146;51.236;-0.336;2023-11-18T13:05:35;5.80;;;0.30;;
77948;SDS011;67146;51.236;-0.336;2023-11-18T13:08:02;6.85;;;1.67;;
77948;SDS011;67146;51.236;-0.336;2023-11-18T13:10:37;4.32;;;0.60;;
77948;SDS011;67146;51.236;-0.336;2023-11-18T13:13:03;4.13;;;0.22;;
77948;SDS011;67146;51.236;-0.336;2023-11-18T13:15:30;2.50;;;0.30;;
77948;SDS011;67146;51.236;-0.336;2023-11-18T13:18:07;2.13;;;0.30;;
77948;SDS011;67146;51.236;-0.336;2023-11-18T13:20:40;3.53;;;0.30;;
77948;SDS011;67146;51.236;-0.336;2023-11-18T13:23:39;3.80;;;0.40;;
77948;SDS011;67146;51.236;-0.336;2023-11-18T13:26:06;6.25;;;0.60;;
77948;SDS011;67146;51.236;-0.336;2023-11-18T13:28:50;7.10;;;0.55;;
77948;SDS011;67146;51.236;-0.336;2023-11-18T13:31:37;5.68;;;0.75;;
77948;SDS011;67146;51.236;-0.336;2023-11-18T13:34:35;8.38;;;0.93;;
77948;SDS011;67146;51.236;-0.336;2023-11-18T13:37:15;6.32;;;1.42;;
77948;SDS011;67146;51.236;-0.336;2023-11-18T13:46:37;3.83;;;0.30;;
77948;SDS011;67146;51.236;-0.336;2023-11-18T13:49:33;4.15;;;0.40;;
77948;SDS011;67146;51.236;-0.336;2023-11-18T13:52:21;3.58;;;0.30;;
77948;SDS011;67146;51.236;-0.336;2023-11-18T13:54:58;3.08;;;0.30;;
77948;SDS011;67146;51.236;-0.336;2023-11-18T13:58:25;5.93;;;0.30;;
77948;SDS011;67146;51.236;-0.336;2023-11-18T14:01:32;5.18;;;0.50;;
77948;SDS011;67146;51.236;-0.336;2023-11-18T14:08:16;6.93;;;0.32;;
77948;SDS011;67146;51.236;-0.336;2023-11-18T15:12:31;7.38;;;0.85;;
77948;SDS011;67146;51.236;-0.336;2023-11-18T15:15:15;6.55;;;0.98;;
77948;SDS011;67146;51.236;-0.336;2023-11-18T15:28:35;20.77;;;5.78;;
77948;SDS011;67146;51.236;-0.336;2023-11-18T15:31:20;28.27;;;10.05;;
77948;SDS011;67146;51.236;-0.336;2023-11-18T15:34:50;13.27;;;3.53;;
77948;SDS011;67146;51.236;-0.336;2023-11-18T15:37:30;11.73;;;2.90;;
77948;SDS011;67146;51.236;-0.336;2023-11-18T15:40:26;11.93;;;1.80;;
77948;SDS011;67146;51.236;-0.336;2023-11-18T15:43:08;18.65;;;3.85;;
77948;SDS011;67146;51.236;-0.336;2023-11-18T15:45:37;14.20;;;2.30;;
77948;SDS011;67146;51.236;-0.336;2023-11-18T15:48:24;14.85;;;2.78;;
77948;SDS011;67146;51.236;-0.336;2023-11-18T15:51:00;19.05;;;6.40;;
77948;SDS011;67146;51.236;-0.336;2023-11-18T15:53:26;18.33;;;4.85;;
77948;SDS011;67146;51.236;-0.336;2023-11-18T15:55:55;13.75;;;3.78;;
77948;SDS011;67146;51.236;-0.336;2023-11-18T16:02:14;12.27;;;1.75;;
77948;SDS011;67146;51.236;-0.336;2023-11-18T16:04:50;12.10;;;1.50;;
77948;SDS011;67146;51.236;-0.336;2023-11-18T16:07:18;10.55;;;1.45;;
77948;SDS011;67146;51.236;-0.336;2023-11-18T16:09:59;15.25;;;1.42;;
77948;SDS011;67146;51.236;-0.336;2023-11-18T16:12:30;11.90;;;1.40;;
77948;SDS011;67146;51.236;-0.336;2023-11-18T16:25:32;43.55;;;12.85;;
77948;SDS011;67146;51.236;-0.336;2023-11-18T16:28:53;39.85;;;12.75;;
77948;SDS011;67146;51.236;-0.336;2023-11-18T16:56:47;11.73;;;1.75;;
77948;SDS011;67146;51.236;-0.336;2023-11-18T17:00:10;16.48;;;2.33;;
77948;SDS011;67146;51.236;-0.336;2023-11-18T17:03:42;14.38;;;1.98;;
77948;SDS011;67146;51.236;-0.336;2023-11-18T17:07:26;17.23;;;2.67;;
77948;SDS011;67146;51.236;-0.336;2023-11-18T17:10:54;16.73;;;4.18;;
77948;SDS011;67146;51.236;-0.336;2023-11-18T17:42:58;7.65;;;1.38;;
77948;SDS011;67146;51.236;-0.336;2023-11-18T18:07:17;15.77;;;2.85;;
77948;SDS011;67146;51.236;-0.336;2023-11-18T18:10:03;21.33;;;2.17;;
77948;SDS011;67146;51.236;-0.336;2023-11-18T18:12:39;24.77;;;5.22;;
77948;SDS011;67146;51.236;-0.336;2023-11-18T18:15:12;19.20;;;4.65;;
77948;SDS011;67146;51.236;-0.336;2023-11-18T18:17:38;15.77;;;2.85;;
77948;SDS011;67146;51.236;-0.336;2023-11-18T18:23:19;16.80;;;2.95;;
77948;SDS011;67146;51.236;-0.336;2023-11-18T18:46:58;23.45;;;3.67;;
77948;SDS011;67146;51.236;-0.336;2023-11-18T18:53:15;12.45;;;2.17;;
77948;SDS011;67146;51.236;-0.336;2023-11-18T18:59:46;18.08;;;3.17;;
77948;SDS011;67146;51.236;-0.336;2023-11-18T19:03:07;17.40;;;2.92;;
77948;SDS011;67146;51.236;-0.336;2023-11-18T19:16:40;14.80;;;2.65;;
77948;SDS011;67146;51.236;-0.336;2023-11-18T19:22:49;11.07;;;1.17;;
77948;SDS011;67146;51.236;-0.336;2023-11-18T19:26:16;14.80;;;1.83;;
77948;SDS011;67146;51.236;-0.336;2023-11-18T19:29:08;14.77;;;1.90;;
77948;SDS011;67146;51.236;-0.336;2023-11-18T19:35:09;24.52;;;3.60;;
77948;SDS011;67146;51.236;-0.336;2023-11-18T19:38:18;28.48;;;4.45;;
77948;SDS011;67146;51.236;-0.336;2023-11-18T19:41:36;17.27;;;2.03;;
77948;SDS011;67146;51.236;-0.336;2023-11-18T19:44:54;15.57;;;2.90;;
77948;SDS011;67146;51.236;-0.336;2023-11-18T19:47:50;18.20;;;3.00;;
77948;SDS011;67146;51.236;-0.336;2023-11-18T19:57:23;22.90;;;2.92;;
77948;SDS011;67146;51.236;-0.336;2023-11-18T20:54:33;18.65;;;2.88;;
77948;SDS011;67146;51.236;-0.336;2023-11-18T21:07:36;29.90;;;3.95;;
77948;SDS011;67146;51.236;-0.336;2023-11-18T21:10:33;22.58;;;2.47;;
77948;SDS011;67146;51.236;-0.336;2023-11-18T21:13:54;23.00;;;3.03;;
77948;SDS011;67146;51.236;-0.336;2023-11-18T21:16:58;19.33;;;2.60;;
77948;SDS011;67146;51.236;-0.336;2023-11-18T21:26:14;11.65;;;1.85;;
77948;SDS011;67146;51.236;-0.336;2023-11-18T21:35:44;27.60;;;2.78;;
77948;SDS011;67146;51.236;-0.336;2023-11-18T21:41:43;20.30;;;2.83;;
77948;SDS011;67146;51.236;-0.336;2023-11-18T21:45:13;29.60;;;4.43;;
77948;SDS011;67146;51.236;-0.336;2023-11-18T21:48:18;22.10;;;2.88;;
77948;SDS011;67146;51.236;-0.336;2023-11-18T21:51:24;18.73;;;2.85;;
77948;SDS011;67146;51.236;-0.336;2023-11-18T21:54:35;24.88;;;2.75;;
77948;SDS011;67146;51.236;-0.336;2023-11-18T22:00:38;17.75;;;4.20;;
77948;SDS011;67146;51.236;-0.336;2023-11-18T22:03:42;26.15;;;4.70;;
77948;SDS011;67146;51.236;-0.336;2023-11-18T22:06:52;18.05;;;2.65;;
77948;SDS011;67146;51.236;-0.336;2023-11-18T22:10:07;18.77;;;3.28;;
77948;SDS011;67146;51.236;-0.336;2023-11-18T22:13:06;18.52;;;2.47;;
77948;SDS011;67146;51.236;-0.336;2023-11-18T22:15:44;23.60;;;3.03;;
77948;SDS011;67146;51.236;-0.336;2023-11-18T22:18:46;18.00;;;2.55;;
77948;SDS011;67146;51.236;-0.336;2023-11-18T22:21:42;17.77;;;2.80;;
77948;SDS011;67146;51.236;-0.336;2023-11-18T22:24:39;15.77;;;2.75;;
77948;SDS011;67146;51.236;-0.336;2023-11-18T22:33:13;18.98;;;2.97;;
77948;SDS011;67146;51.236;-0.336;2023-11-18T22:35:58;18.38;;;2.92;;
77948;SDS011;67146;51.236;-0.336;2023-11-18T22:39:16;26.77;;;3.75;;
77948;SDS011;67146;51.236;-0.336;2023-11-18T22:42:07;14.32;;;2.33;;
77948;SDS011;67146;51.236;-0.336;2023-11-18T22:44:53;24.02;;;2.38;;
77948;SDS011;67146;51.236;-0.336;2023-11-18T22:50:54;21.00;;;2.70;;
77948;SDS011;67146;51.236;-0.336;2023-11-18T22:53:45;22.90;;;2.47;;
77948;SDS011;67146;51.236;-0.336;2023-11-18T23:03:24;20.20;;;2.53;;
77948;SDS011;67146;51.236;-0.336;2023-11-18T23:06:50;16.77;;;2.78;;
77948;SDS011;67146;51.236;-0.336;2023-11-18T23:09:24;21.73;;;3.22;;
77948;SDS011;67146;51.236;-0.336;2023-11-18T23:12:24;21.38;;;2.70;;
77948;SDS011;67146;51.236;-0.336;2023-11-18T23:17:54;22.00;;;3.65;;
77948;SDS011;67146;51.236;-0.336;2023-11-18T23:26:19;18.77;;;2.38;;
77948;SDS011;67146;51.236;-0.336;2023-11-18T23:29:12;17.23;;;2.22;;
77948;SDS011;67146;51.236;-0.336;2023-11-18T23:37:34;18.88;;;2.33;;
77948;SDS011;67146;51.236;-0.336;2023-11-18T23:40:17;21.17;;;1.90;;
77948;SDS011;67146;51.236;-0.336;2023-11-18T23:43:23;25.63;;;3.05;;
77948;SDS011;67146;51.236;-0.336;2023-11-18T23:46:17;32.90;;;3.20;;
77948;SDS011;67146;51.236;-0.336;2023-11-18T23:49:10;17.15;;;2.20;;
77948;SDS011;67146;51.236;-0.336;2023-11-18T23:51:48;18.67;;;2.90;;
77948;SDS011;67146;51.236;-0.336;2023-11-18T23:54:39;24.60;;;2.75;;
77948;SDS011;67146;51.236;-0.336;2023-11-18T23:57:15;21.13;;;4.75;;
77948;SDS011;67146;51.236;-0.336;2023-11-18T23:59:54;27.23;;;2.60;;
